LAX weather

Public forecast

Using degrees Fahrenheit for public forecast. Weather courtesy of forecast.io.

Current aviation weather report (METAR) for Los Angeles International Airport

Retrieved 2020/08/13 01:53 UTC (1 hour ago):

KLAX 130153Z 26008KT 10SM FEW050 FEW150 19/15 A2986 RMK SLP109 FU FEW050 T01890150

Aviation forecast (TAF) for Los Angeles International Airport

Retrieved 2020-08-13 00:09 UTC (3 hours ago):

TAF KLAX 130006Z 1300/1406 26012KT P6SM SKC FM130400 26006KT P6SM SKC FM130900 VRB03KT P6SM FEW005 SCT120 BKN160 FM131700 25006KT P6SM SCT120 BKN160 FM132000 26012KT P6SM SCT120 BKN160 FM140400 26006KT P6SM SCT160